ENSN/SKE METAR and TAF weather

Enter ICAO airport designator
Station Type Date Time Source
ENSN METAR 2015/11/09 08:50 UTC NOAA

ENSN 090850Z 20010G22KT 150V240 CAVOK 07/03 Q1000


Station Type Date Time Source
ENSN Decoded METAR 2015/11/09 08:50 UTC NOAA

Skien-Geiteryggen, Norway (ENSN) 59-11N 009-34E 14M
Nov 09, 2015 - 03:50 AM EST / 2015.11.09 0850 UTC
Wind: from the SSW (200 degrees) at 12 MPH (10 KT) gusting to 25 MPH (22 KT) (direction variable):0
Visibility: greater than 7 mile(s):0
Temperature: 44 F (7 C)
Dew Point: 37 F (3 C)
Relative Humidity: 75%
Pressure (altimeter): 29.53 in. Hg (1000 hPa)
ob: ENSN 090850Z 20010G22KT 150V240 CAVOK 07/03 Q1000
cycle: 9

Station Type Date Time Source
ENSN TAF UTC NOAA

Error!


Example: see airport list